createdAt,value
2017-02-16T00:00:06.481Z,16.45
2017-02-16T00:01:17.186Z,16.39
2017-02-16T00:02:27.826Z,16.43
2017-02-16T00:03:38.055Z,16.39
2017-02-16T00:04:47.823Z,16.39
2017-02-16T00:05:58.029Z,16.42
2017-02-16T00:07:08.280Z,16.46
2017-02-16T00:08:18.489Z,16.38
2017-02-16T00:09:29.126Z,16.35
2017-02-16T00:10:40.229Z,16.42
2017-02-16T00:11:50.455Z,16.39
2017-02-16T00:13:01.151Z,16.35
2017-02-16T00:14:11.373Z,16.38
2017-02-16T00:15:21.136Z,16.35
2017-02-16T00:16:31.339Z,16.35
2017-02-16T00:17:40.670Z,16.34
2017-02-16T00:18:50.623Z,16.38
2017-02-16T00:20:00.831Z,16.35
2017-02-16T00:21:10.579Z,16.34
2017-02-16T00:22:20.335Z,16.34
2017-02-16T00:23:30.552Z,16.3
2017-02-16T00:24:41.718Z,16.34
2017-02-16T00:25:52.372Z,16.35
2017-02-16T00:27:02.135Z,16.33
2017-02-16T00:28:11.918Z,16.33
2017-02-16T00:29:23.038Z,16.3
2017-02-16T00:30:34.175Z,16.34
2017-02-16T00:31:44.815Z,16.35
2017-02-16T00:32:54.573Z,16.27
2017-02-16T00:34:04.339Z,16.33
2017-02-16T00:35:14.116Z,16.33
2017-02-16T00:36:24.388Z,16.27
2017-02-16T00:37:35.055Z,16.31
2017-02-16T00:38:45.250Z,16.35
2017-02-16T00:39:54.567Z,16.33
2017-02-16T00:41:04.766Z,16.28
2017-02-16T00:42:16.008Z,16.41
2017-02-16T00:43:25.766Z,16.25
2017-02-16T00:44:35.527Z,16.33
2017-02-16T00:45:46.625Z,16.27
2017-02-16T00:46:56.858Z,16.28
2017-02-16T00:48:06.245Z,16.31
2017-02-16T00:49:16.031Z,16.25
2017-02-16T00:50:26.688Z,16.25
2017-02-16T00:51:36.459Z,16.23
2017-02-16T00:52:46.666Z,16.23
2017-02-16T00:53:57.375Z,16.25
2017-02-16T00:55:07.573Z,16.24
2017-02-16T00:56:16.888Z,16.24
2017-02-16T00:57:27.112Z,16.25
2017-02-16T00:58:36.884Z,16.2
2017-02-16T00:59:46.714Z,16.25
2017-02-16T01:00:56.462Z,16.21
2017-02-16T01:02:06.676Z,16.15
2017-02-16T01:03:17.330Z,16.17
2017-02-16T01:04:27.980Z,16.2
2017-02-16T01:05:38.677Z,16.17
2017-02-16T01:06:48.468Z,16.21
2017-02-16T01:07:59.132Z,16.2
2017-02-16T01:09:09.805Z,16.23
2017-02-16T01:10:20.466Z,16.17
2017-02-16T01:11:30.729Z,16.11
2017-02-16T01:12:41.827Z,16.12
2017-02-16T01:13:52.052Z,16.09
2017-02-16T01:15:02.717Z,16.17
2017-02-16T01:16:12.926Z,16.11
2017-02-16T01:17:23.197Z,16.21
2017-02-16T01:18:32.518Z,16.11
2017-02-16T01:19:42.736Z,16.17
2017-02-16T01:20:52.935Z,16.08
2017-02-16T01:22:04.016Z,16.08
2017-02-16T01:23:15.621Z,16.11
2017-02-16T01:24:27.162Z,16.17
2017-02-16T01:25:36.920Z,16.11
2017-02-16T01:26:47.557Z,16.07
2017-02-16T01:27:58.664Z,16.05
2017-02-16T01:29:08.052Z,16.12
2017-02-16T01:30:17.824Z,16.05
2017-02-16T01:31:28.023Z,16.05
2017-02-16T01:32:38.229Z,16.12
2017-02-16T01:33:48.465Z,16.14
2017-02-16T01:34:58.316Z,16.04
2017-02-16T01:36:08.518Z,16.04
2017-02-16T01:37:18.285Z,16.12
2017-02-16T01:38:28.048Z,16.09
2017-02-16T01:39:37.803Z,16.02
2017-02-16T01:40:47.612Z,16.05
2017-02-16T01:41:57.364Z,16.07
2017-02-16T01:43:07.129Z,16.01
2017-02-16T01:44:17.776Z,16.02
2017-02-16T01:45:27.104Z,15.97
2017-02-16T01:46:38.237Z,16.01
2017-02-16T01:47:48.432Z,16.07
2017-02-16T01:48:58.627Z,15.97
2017-02-16T01:50:09.711Z,15.97
2017-02-16T01:51:19.942Z,15.93
2017-02-16T01:52:30.215Z,15.97
2017-02-16T01:53:40.430Z,15.96
2017-02-16T01:54:50.669Z,15.96
2017-02-16T01:56:02.222Z,15.97
2017-02-16T01:57:12.885Z,15.92
2017-02-16T01:58:23.193Z,15.96
2017-02-16T01:59:33.414Z,15.97
2017-02-16T02:00:44.060Z,16.02
2017-02-16T02:01:53.816Z,15.94
2017-02-16T02:03:04.023Z,15.94
2017-02-16T02:04:14.724Z,16
2017-02-16T02:05:24.918Z,16
2017-02-16T02:06:35.117Z,15.97
2017-02-16T02:07:45.339Z,15.94
2017-02-16T02:08:55.541Z,15.97
2017-02-16T02:10:05.793Z,15.94
2017-02-16T02:11:15.115Z,15.96
2017-02-16T02:12:25.774Z,15.96
2017-02-16T02:13:36.409Z,15.96
2017-02-16T02:14:46.170Z,15.97
2017-02-16T02:15:56.987Z,15.97
2017-02-16T02:17:06.765Z,15.96
2017-02-16T02:18:16.971Z,15.97
2017-02-16T02:19:26.739Z,16
2017-02-16T02:20:36.495Z,15.9
2017-02-16T02:21:47.185Z,15.96
2017-02-16T02:22:56.955Z,15.92
2017-02-16T02:24:07.169Z,15.93
2017-02-16T02:25:17.814Z,15.92
2017-02-16T02:26:27.141Z,15.92
2017-02-16T02:27:36.954Z,15.9
2017-02-16T02:28:47.171Z,15.92
2017-02-16T02:29:56.928Z,15.94
2017-02-16T02:31:07.585Z,15.83
2017-02-16T02:32:18.682Z,15.78
2017-02-16T02:33:28.483Z,15.96
2017-02-16T02:34:38.685Z,15.86
2017-02-16T02:35:49.347Z,15.83
2017-02-16T02:36:59.553Z,15.9
2017-02-16T02:38:09.762Z,15.9
2017-02-16T02:39:20.035Z,15.76
2017-02-16T02:40:29.356Z,15.9
2017-02-16T02:41:39.109Z,15.9
2017-02-16T02:42:49.323Z,15.93
2017-02-16T02:43:59.552Z,15.82
2017-02-16T02:45:09.797Z,15.9
2017-02-16T02:46:19.580Z,15.9
2017-02-16T02:47:30.217Z,15.83
2017-02-16T02:48:40.896Z,15.87
2017-02-16T02:49:51.546Z,15.82
2017-02-16T02:51:01.357Z,15.8
2017-02-16T02:52:12.455Z,15.78
2017-02-16T02:53:22.649Z,15.82
2017-02-16T02:54:32.406Z,15.8
2017-02-16T02:55:41.722Z,15.75
2017-02-16T02:56:52.431Z,15.78
2017-02-16T02:58:03.524Z,15.78
2017-02-16T02:59:13.277Z,15.82
2017-02-16T03:00:23.485Z,15.86
2017-02-16T03:01:33.709Z,15.78
2017-02-16T03:02:43.520Z,15.75
2017-02-16T03:03:53.762Z,15.76
2017-02-16T03:05:04.861Z,15.84
2017-02-16T03:06:15.970Z,15.8
2017-02-16T03:07:25.327Z,15.8
2017-02-16T03:08:35.124Z,15.78
2017-02-16T03:09:44.449Z,15.82
2017-02-16T03:10:55.089Z,15.76
2017-02-16T03:12:05.742Z,15.78
2017-02-16T03:13:15.949Z,15.82
2017-02-16T03:14:26.214Z,15.76
2017-02-16T03:15:36.452Z,15.8
2017-02-16T03:16:46.193Z,15.78
2017-02-16T03:17:56.390Z,15.8
2017-02-16T03:19:06.597Z,15.82
2017-02-16T03:20:16.863Z,15.74
2017-02-16T03:21:27.067Z,15.78
2017-02-16T03:22:36.814Z,15.75
2017-02-16T03:23:46.607Z,15.71
2017-02-16T03:24:57.247Z,15.74
2017-02-16T03:26:08.376Z,15.75
2017-02-16T03:27:19.481Z,15.71
2017-02-16T03:28:29.248Z,15.69
2017-02-16T03:29:39.904Z,15.74
2017-02-16T03:30:49.693Z,15.76
2017-02-16T03:32:01.259Z,15.69
2017-02-16T03:33:11.016Z,15.67
2017-02-16T03:34:20.788Z,15.62
2017-02-16T03:35:30.555Z,15.68
2017-02-16T03:36:40.315Z,15.68
2017-02-16T03:37:51.052Z,15.62
2017-02-16T03:39:00.849Z,15.69
2017-02-16T03:40:11.927Z,15.67
2017-02-16T03:41:21.696Z,15.65
2017-02-16T03:42:31.460Z,15.68
2017-02-16T03:43:41.742Z,15.65
2017-02-16T03:44:52.411Z,15.65
2017-02-16T03:46:03.489Z,15.65
2017-02-16T03:47:13.244Z,15.64
2017-02-16T03:48:23.919Z,15.64
2017-02-16T03:49:33.315Z,15.68
2017-02-16T03:50:43.506Z,15.67
2017-02-16T03:51:52.827Z,15.62
2017-02-16T03:53:03.044Z,15.62
2017-02-16T03:54:12.795Z,15.64
2017-02-16T03:55:22.620Z,15.67
2017-02-16T03:56:32.835Z,15.6
2017-02-16T03:57:43.482Z,15.64
2017-02-16T03:58:53.685Z,15.64
2017-02-16T04:00:03.465Z,15.59
2017-02-16T04:01:13.282Z,15.65
2017-02-16T04:02:22.609Z,15.6
2017-02-16T04:03:32.372Z,15.65
2017-02-16T04:04:42.586Z,15.62
2017-02-16T04:05:53.216Z,15.51
2017-02-16T04:07:03.493Z,15.62
2017-02-16T04:08:13.703Z,15.64
2017-02-16T04:09:24.369Z,15.65
2017-02-16T04:10:35.024Z,15.6
2017-02-16T04:11:44.368Z,15.57
2017-02-16T04:12:55.492Z,15.47
2017-02-16T04:14:05.701Z,15.6
2017-02-16T04:15:15.905Z,15.57
2017-02-16T04:16:26.111Z,15.57
2017-02-16T04:17:36.335Z,15.57
2017-02-16T04:18:47.465Z,15.47
2017-02-16T04:19:57.721Z,15.46
2017-02-16T04:21:08.359Z,15.56
2017-02-16T04:22:18.579Z,15.49
2017-02-16T04:23:30.098Z,15.53
2017-02-16T04:24:40.367Z,15.57
2017-02-16T04:25:51.000Z,15.56
2017-02-16T04:27:00.756Z,15.57
2017-02-16T04:28:10.953Z,15.5
2017-02-16T04:29:21.151Z,15.51
2017-02-16T04:30:31.837Z,15.47
2017-02-16T04:31:41.602Z,15.46
2017-02-16T04:32:52.244Z,15.51
2017-02-16T04:34:03.343Z,15.5
2017-02-16T04:35:13.996Z,15.49
2017-02-16T04:36:24.676Z,15.47
2017-02-16T04:37:35.341Z,15.44
2017-02-16T04:38:45.991Z,15.5
2017-02-16T04:39:56.630Z,15.44
2017-02-16T04:41:06.828Z,15.44
2017-02-16T04:42:16.637Z,15.43
2017-02-16T04:43:26.842Z,15.39
2017-02-16T04:44:36.594Z,15.46
2017-02-16T04:45:46.809Z,15.43
2017-02-16T04:46:56.138Z,15.41
2017-02-16T04:48:05.627Z,15.44
2017-02-16T04:49:15.829Z,15.43
2017-02-16T04:50:25.578Z,15.43
2017-02-16T04:51:35.347Z,15.41
2017-02-16T04:52:45.547Z,15.49
2017-02-16T04:53:55.945Z,15.41
2017-02-16T04:55:06.142Z,15.41
2017-02-16T04:56:16.394Z,15.39
2017-02-16T04:57:26.636Z,15.39
2017-02-16T04:58:36.393Z,15.41
2017-02-16T04:59:45.766Z,15.41
2017-02-16T05:00:55.517Z,15.43
2017-02-16T05:02:05.281Z,15.43
2017-02-16T05:03:15.495Z,15.36
2017-02-16T05:04:25.688Z,15.46
2017-02-16T05:05:36.385Z,15.39
2017-02-16T05:06:46.578Z,15.44
2017-02-16T05:07:55.924Z,15.41
2017-02-16T05:09:05.260Z,15.36
2017-02-16T05:10:15.478Z,15.41
2017-02-16T05:11:25.313Z,15.43
2017-02-16T05:12:35.540Z,15.43
2017-02-16T05:13:45.310Z,15.38
2017-02-16T05:14:55.959Z,15.41
2017-02-16T05:16:05.755Z,15.36
2017-02-16T05:17:15.560Z,15.28
2017-02-16T05:18:25.330Z,15.31
2017-02-16T05:19:35.980Z,15.28
2017-02-16T05:20:46.196Z,15.27
2017-02-16T05:21:56.850Z,15.35
2017-02-16T05:23:07.295Z,15.36
2017-02-16T05:24:17.491Z,15.28
2017-02-16T05:25:28.148Z,15.35
2017-02-16T05:26:39.683Z,15.31
2017-02-16T05:27:49.444Z,15.31
2017-02-16T05:28:59.692Z,15.27
2017-02-16T05:30:10.319Z,15.34
2017-02-16T05:31:20.519Z,15.34
2017-02-16T05:32:30.273Z,15.32
2017-02-16T05:33:40.481Z,15.28
2017-02-16T05:34:51.174Z,15.35
2017-02-16T05:36:00.937Z,15.34
2017-02-16T05:37:10.711Z,15.31
2017-02-16T05:38:20.919Z,15.28
2017-02-16T05:39:31.112Z,15.31
2017-02-16T05:40:41.083Z,15.35
2017-02-16T05:41:52.607Z,15.29
2017-02-16T05:43:02.397Z,15.31
2017-02-16T05:44:12.621Z,15.34
2017-02-16T05:45:23.271Z,15.31
2017-02-16T05:46:33.522Z,15.28
2017-02-16T05:47:44.609Z,15.28
2017-02-16T05:48:53.915Z,15.28
2017-02-16T05:50:03.694Z,15.31
2017-02-16T05:51:13.447Z,15.25
2017-02-16T05:52:24.193Z,15.25
2017-02-16T05:53:34.843Z,15.29
2017-02-16T05:54:44.591Z,15.29
2017-02-16T05:55:54.807Z,15.14
2017-02-16T05:57:05.018Z,15.27
2017-02-16T05:58:15.264Z,15.23
2017-02-16T05:59:25.032Z,15.29
2017-02-16T06:00:35.682Z,15.21
2017-02-16T06:01:46.329Z,15.27
2017-02-16T06:02:57.408Z,15.14
2017-02-16T06:04:08.094Z,15.19
2017-02-16T06:05:17.856Z,15.14
2017-02-16T06:06:28.069Z,15.14
2017-02-16T06:07:37.892Z,15.17
2017-02-16T06:08:48.098Z,15.14
2017-02-16T06:09:58.443Z,15.19
2017-02-16T06:11:08.203Z,15.17
2017-02-16T06:12:18.851Z,15.13
2017-02-16T06:13:29.482Z,15.16
2017-02-16T06:14:38.804Z,15.13
2017-02-16T06:15:50.412Z,15.17
2017-02-16T06:17:01.051Z,15.17
2017-02-16T06:18:10.375Z,15.14
2017-02-16T06:19:20.166Z,15.17
2017-02-16T06:20:30.379Z,15.23
2017-02-16T06:21:40.195Z,15.14
2017-02-16T06:22:50.389Z,15.13
2017-02-16T06:24:00.615Z,15.23
2017-02-16T06:25:11.256Z,15.16
2017-02-16T06:26:21.004Z,15.17
2017-02-16T06:27:31.405Z,15.19
2017-02-16T06:28:41.611Z,15.2
2017-02-16T06:29:51.816Z,15.21
2017-02-16T06:31:02.048Z,15.16
2017-02-16T06:32:12.690Z,15.17
2017-02-16T06:33:22.978Z,15.17
2017-02-16T06:34:33.168Z,15.2
2017-02-16T06:35:44.264Z,15.19
2017-02-16T06:36:54.906Z,15.19
2017-02-16T06:38:05.987Z,15.16
2017-02-16T06:39:16.810Z,15.16
2017-02-16T06:40:26.594Z,15.16
2017-02-16T06:41:36.820Z,15.19
2017-02-16T06:42:47.053Z,15.17
2017-02-16T06:43:57.273Z,15.21
2017-02-16T06:45:07.987Z,15.17
2017-02-16T06:46:18.620Z,15.14
2017-02-16T06:47:28.816Z,15.25
2017-02-16T06:48:39.470Z,15.17
2017-02-16T06:49:50.117Z,15.16
2017-02-16T06:50:59.930Z,15.19
2017-02-16T06:52:10.119Z,15.16
2017-02-16T06:53:19.880Z,15.17
2017-02-16T06:54:30.770Z,15.16
2017-02-16T06:55:40.974Z,15.19
2017-02-16T06:56:50.774Z,15.19
2017-02-16T06:58:01.423Z,15.17
2017-02-16T06:59:12.292Z,15.13
2017-02-16T07:00:23.146Z,15.16
2017-02-16T07:01:34.423Z,15.17
2017-02-16T07:02:44.249Z,15.16
2017-02-16T07:03:54.569Z,15.13
2017-02-16T07:05:04.768Z,15.19
2017-02-16T07:06:14.969Z,15.17
2017-02-16T07:07:25.389Z,15.17
2017-02-16T07:08:35.228Z,15.16
2017-02-16T07:09:44.580Z,15.19
2017-02-16T07:10:54.354Z,15.23
2017-02-16T07:12:04.787Z,15.17
2017-02-16T07:13:15.242Z,15.13
2017-02-16T07:14:25.077Z,15.17
2017-02-16T07:15:36.145Z,15.13
2017-02-16T07:16:47.239Z,15.14
2017-02-16T07:17:57.144Z,15.19
2017-02-16T07:19:07.356Z,15.14
2017-02-16T07:20:17.617Z,15.16
2017-02-16T07:21:28.719Z,15.28
2017-02-16T07:22:39.365Z,15.21
2017-02-16T07:23:49.603Z,15.17
2017-02-16T07:25:00.236Z,15.1
2017-02-16T07:26:10.625Z,15.14
2017-02-16T07:27:20.397Z,15.17
2017-02-16T07:28:30.188Z,15.13
2017-02-16T07:29:41.190Z,15.2
2017-02-16T07:30:51.404Z,15.2
2017-02-16T07:32:02.160Z,15.14
2017-02-16T07:33:12.473Z,15.23
2017-02-16T07:34:22.684Z,15.23
2017-02-16T07:35:33.397Z,15.23
2017-02-16T07:36:44.659Z,15.28
2017-02-16T07:37:55.306Z,15.28
2017-02-16T07:39:05.074Z,15.28
2017-02-16T07:40:15.039Z,15.31
2017-02-16T07:41:27.107Z,15.32
2017-02-16T07:42:37.767Z,15.29
2017-02-16T07:43:47.575Z,15.28
2017-02-16T07:44:59.176Z,15.34
2017-02-16T07:46:09.152Z,15.29
2017-02-16T07:47:20.154Z,15.31
2017-02-16T07:48:31.834Z,15.38
2017-02-16T07:49:41.852Z,15.44
2017-02-16T07:50:52.302Z,15.41
2017-02-16T07:52:02.961Z,15.46
2017-02-16T07:53:15.196Z,15.44
2017-02-16T07:54:26.402Z,15.41
2017-02-16T07:55:38.197Z,15.41
2017-02-16T07:56:48.695Z,15.41
2017-02-16T07:58:00.690Z,15.41
2017-02-16T07:59:11.963Z,15.41
2017-02-16T08:00:21.716Z,15.43
2017-02-16T08:01:31.103Z,15.44
2017-02-16T08:02:42.306Z,15.46
2017-02-16T08:03:52.560Z,15.57
2017-02-16T08:05:02.647Z,15.5
2017-02-16T08:06:13.736Z,15.65
2017-02-16T08:07:24.426Z,15.64
2017-02-16T08:08:35.130Z,15.65
2017-02-16T08:09:45.564Z,15.71
2017-02-16T08:10:55.767Z,15.78
2017-02-16T08:12:06.411Z,15.89
2017-02-16T08:13:16.225Z,15.9
2017-02-16T08:14:26.160Z,16
2017-02-16T08:15:35.950Z,16.05
2017-02-16T08:16:46.064Z,16.14
2017-02-16T08:17:56.594Z,16.15
2017-02-16T08:19:07.019Z,16.2
2017-02-16T08:20:17.289Z,16.27
2017-02-16T08:21:27.052Z,16.33
2017-02-16T08:22:36.821Z,16.34
2017-02-16T08:23:48.121Z,16.38
2017-02-16T08:24:59.675Z,16.38
2017-02-16T08:26:10.061Z,16.46
2017-02-16T08:27:20.251Z,16.5
2017-02-16T08:28:30.472Z,16.52
2017-02-16T08:29:40.709Z,16.66
2017-02-16T08:30:50.909Z,16.75
2017-02-16T08:32:03.336Z,16.71
2017-02-16T08:33:13.183Z,16.82
2017-02-16T08:34:23.406Z,16.91
2017-02-16T08:35:33.375Z,16.94
2017-02-16T08:36:43.315Z,17.04
2017-02-16T08:37:53.576Z,17.06
2017-02-16T08:39:03.789Z,17.12
2017-02-16T08:40:14.908Z,17.19
2017-02-16T08:41:26.045Z,17.18
2017-02-16T08:42:36.253Z,17.31
2017-02-16T08:43:46.058Z,17.46
2017-02-16T08:44:56.707Z,17.44
2017-02-16T08:46:08.244Z,17.52
2017-02-16T08:47:18.987Z,17.54
2017-02-16T08:48:28.752Z,17.56
2017-02-16T08:49:38.571Z,17.59
2017-02-16T08:50:49.538Z,17.75
2017-02-16T08:51:59.767Z,17.82
2017-02-16T08:53:10.833Z,17.82
2017-02-16T08:54:21.078Z,17.86
2017-02-16T08:55:32.156Z,17.92
2017-02-16T08:56:42.400Z,17.9
2017-02-16T08:57:52.614Z,17.97
2017-02-16T08:59:02.435Z,17.95
2017-02-16T09:00:12.958Z,17.96
2017-02-16T09:01:23.216Z,18.03
2017-02-16T09:02:33.407Z,18.1
2017-02-16T09:03:43.178Z,18.1
2017-02-16T09:04:54.709Z,18.15
2017-02-16T09:06:04.917Z,18.25
2017-02-16T09:07:16.959Z,18.23
2017-02-16T09:08:27.067Z,18.41
2017-02-16T09:09:37.268Z,18.33
2017-02-16T09:10:48.695Z,18.45
2017-02-16T09:11:58.921Z,18.5
2017-02-16T09:13:09.003Z,18.5
2017-02-16T09:14:18.793Z,18.51
2017-02-16T09:15:29.968Z,18.62
2017-02-16T09:16:39.735Z,18.62
2017-02-16T09:17:49.934Z,18.72
2017-02-16T09:19:00.826Z,18.7
2017-02-16T09:20:10.587Z,18.76
2017-02-16T09:21:22.076Z,18.82
2017-02-16T09:22:32.287Z,18.85
2017-02-16T09:23:42.720Z,18.85
2017-02-16T09:24:54.040Z,18.95
2017-02-16T09:26:04.961Z,18.95
2017-02-16T09:27:15.363Z,19.04
2017-02-16T09:28:25.153Z,19.16
2017-02-16T09:29:36.338Z,19.16
2017-02-16T09:30:45.766Z,19.18
2017-02-16T09:31:56.640Z,19.25
2017-02-16T09:33:08.004Z,19.29
2017-02-16T09:34:18.666Z,19.33
2017-02-16T09:35:28.987Z,19.33
2017-02-16T09:36:39.697Z,19.32
2017-02-16T09:37:51.214Z,19.5
2017-02-16T09:39:01.007Z,19.51
2017-02-16T09:40:11.211Z,19.55
2017-02-16T09:41:20.988Z,19.58
2017-02-16T09:42:31.683Z,19.68
2017-02-16T09:43:42.635Z,19.74
2017-02-16T09:44:52.421Z,19.68
2017-02-16T09:46:03.106Z,19.8
2017-02-16T09:47:13.175Z,19.81
2017-02-16T09:48:23.515Z,19.8
2017-02-16T09:49:34.090Z,19.87
2017-02-16T09:50:44.054Z,19.99
2017-02-16T09:51:53.924Z,20.02
2017-02-16T09:53:04.175Z,20.02
2017-02-16T09:54:15.863Z,20.03
2017-02-16T09:55:25.311Z,20.18
2017-02-16T09:56:35.559Z,20.18
2017-02-16T09:57:46.204Z,20.23
2017-02-16T09:58:57.213Z,20.32
2017-02-16T10:00:08.004Z,20.36
2017-02-16T10:01:18.219Z,20.41
2017-02-16T10:02:29.438Z,20.54
2017-02-16T10:03:40.000Z,20.64
2017-02-16T10:04:49.767Z,20.77
2017-02-16T10:05:59.593Z,20.74
2017-02-16T10:07:09.347Z,20.84
2017-02-16T10:08:20.321Z,20.88
2017-02-16T10:09:29.642Z,20.88
2017-02-16T10:10:39.903Z,20.89
2017-02-16T10:11:50.191Z,20.99
2017-02-16T10:13:00.845Z,21.01
2017-02-16T10:14:12.502Z,21.06
2017-02-16T10:15:23.527Z,21.04
2017-02-16T10:16:33.731Z,21.06
2017-02-16T10:17:44.008Z,21.1
2017-02-16T10:18:56.946Z,21.17
2017-02-16T10:20:07.612Z,21.19
2017-02-16T10:21:19.408Z,21.22
2017-02-16T10:23:14.331Z,21.29
2017-02-16T10:24:24.496Z,21.34
2017-02-16T10:25:34.716Z,21.42
2017-02-16T10:26:45.483Z,21.43
2017-02-16T10:27:55.705Z,21.47
2017-02-16T10:29:06.525Z,21.43
2017-02-16T10:30:16.751Z,21.53
2017-02-16T10:31:27.166Z,21.61
2017-02-16T10:32:37.849Z,21.64
2017-02-16T10:33:48.053Z,21.67
2017-02-16T10:34:58.694Z,21.71
2017-02-16T10:36:09.383Z,21.77
2017-02-16T10:37:19.584Z,21.91
2017-02-16T10:38:30.781Z,21.88
2017-02-16T10:39:41.872Z,21.96
2017-02-16T10:40:59.237Z,21.96
2017-02-16T10:42:17.887Z,22
2017-02-16T10:43:34.124Z,22.05
2017-02-16T10:44:51.197Z,22.12
2017-02-16T10:46:11.442Z,22.06
2017-02-16T10:47:27.213Z,22.12
2017-02-16T10:48:40.420Z,22.1
2017-02-16T10:49:52.783Z,22.22
2017-02-16T10:51:05.651Z,22.25
2017-02-16T10:52:17.733Z,22.22
2017-02-16T10:53:28.862Z,22.15
2017-02-16T10:54:39.062Z,22.25
2017-02-16T10:55:52.287Z,22.25
2017-02-16T10:57:04.552Z,22.33
2017-02-16T10:58:14.952Z,22.31
2017-02-16T10:59:24.553Z,22.25
2017-02-16T11:00:34.408Z,22.33
2017-02-16T11:01:44.357Z,22.27
2017-02-16T11:02:54.957Z,22.28
2017-02-16T11:04:04.287Z,22.4
2017-02-16T11:05:13.917Z,22.45
2017-02-16T11:06:24.482Z,22.46
2017-02-16T11:07:34.869Z,22.51
2017-02-16T11:08:45.566Z,22.49
2017-02-16T11:09:56.742Z,22.43
2017-02-16T11:11:09.343Z,22.45
2017-02-16T11:12:22.578Z,22.42
2017-02-16T11:13:34.145Z,22.45
2017-02-16T11:14:46.703Z,22.43
2017-02-16T11:15:58.556Z,22.46
2017-02-16T11:17:09.429Z,22.49
2017-02-16T11:18:19.548Z,22.51
2017-02-16T11:19:30.327Z,22.52
2017-02-16T11:20:41.521Z,22.58
2017-02-16T11:21:51.290Z,22.62
2017-02-16T11:23:01.701Z,22.65
2017-02-16T11:24:12.614Z,22.67
2017-02-16T11:25:23.864Z,22.64
2017-02-16T11:26:34.319Z,22.67
2017-02-16T11:27:46.146Z,22.65
2017-02-16T11:28:56.365Z,22.64
2017-02-16T11:30:07.020Z,22.62
2017-02-16T11:31:17.724Z,22.64
2017-02-16T11:32:28.418Z,22.68
2017-02-16T11:33:38.199Z,22.72
2017-02-16T11:34:47.968Z,22.7
2017-02-16T11:35:58.194Z,22.73
2017-02-16T11:37:08.483Z,22.72
2017-02-16T11:38:19.136Z,22.76
2017-02-16T11:39:29.357Z,22.77
2017-02-16T11:40:39.554Z,22.64
2017-02-16T11:41:50.651Z,22.68
2017-02-16T11:43:00.455Z,22.64
2017-02-16T11:44:11.090Z,22.62
2017-02-16T11:45:20.415Z,22.65
2017-02-16T11:46:30.662Z,22.65
2017-02-16T11:47:41.321Z,22.72
2017-02-16T11:48:51.574Z,22.65
2017-02-16T11:50:01.346Z,22.7
2017-02-16T11:51:12.446Z,22.62
2017-02-16T11:52:23.109Z,22.65
2017-02-16T11:53:32.915Z,22.67
2017-02-16T11:54:43.640Z,22.7
2017-02-16T11:55:53.453Z,22.65
2017-02-16T11:57:04.549Z,22.65
2017-02-16T11:58:15.206Z,22.65
2017-02-16T11:59:25.415Z,22.62
2017-02-16T12:00:36.141Z,22.51
2017-02-16T12:01:46.356Z,22.45
2017-02-16T12:02:57.005Z,22.42
2017-02-16T12:04:07.662Z,22.39
2017-02-16T12:05:17.435Z,22.31
2017-02-16T12:06:28.595Z,22.3
2017-02-16T12:07:39.700Z,22.25
2017-02-16T12:08:49.904Z,22.2
2017-02-16T12:10:00.111Z,22.21
2017-02-16T12:11:10.352Z,22.1
2017-02-16T12:12:20.191Z,22.09
2017-02-16T12:13:29.959Z,22.05
2017-02-16T12:14:40.187Z,22.02
2017-02-16T12:15:50.865Z,21.99
2017-02-16T12:17:01.066Z,21.9
2017-02-16T12:18:11.335Z,21.88
2017-02-16T12:19:21.110Z,21.8
2017-02-16T12:20:31.320Z,21.79
2017-02-16T12:21:41.083Z,21.72
2017-02-16T12:22:50.416Z,21.8
2017-02-16T12:24:00.668Z,21.74
2017-02-16T12:25:10.435Z,21.65
2017-02-16T12:26:19.782Z,21.74
2017-02-16T12:27:30.012Z,21.75
2017-02-16T12:28:41.099Z,21.74
2017-02-16T12:29:50.471Z,21.74
2017-02-16T12:31:01.581Z,21.72
2017-02-16T12:32:10.926Z,21.65
2017-02-16T12:33:21.184Z,21.61
2017-02-16T12:34:30.492Z,21.65
2017-02-16T12:35:39.868Z,21.58
2017-02-16T12:36:50.066Z,21.58
2017-02-16T12:38:00.288Z,21.52
2017-02-16T12:39:10.056Z,21.49
2017-02-16T12:40:19.818Z,21.43
2017-02-16T12:41:29.383Z,21.35
2017-02-16T12:42:39.572Z,21.31
2017-02-16T12:43:49.351Z,21.32
2017-02-16T12:45:00.414Z,21.37
2017-02-16T12:46:10.176Z,21.43
2017-02-16T12:47:19.555Z,21.49
2017-02-16T12:48:30.202Z,21.47
2017-02-16T12:49:39.547Z,21.38
2017-02-16T12:50:49.308Z,21.46
2017-02-16T12:51:58.641Z,21.44
2017-02-16T12:53:08.464Z,21.44
2017-02-16T12:54:18.235Z,21.32
2017-02-16T12:55:28.440Z,21.34
2017-02-16T12:56:39.084Z,21.29
2017-02-16T12:57:48.853Z,21.28
2017-02-16T12:58:59.130Z,21.17
2017-02-16T13:00:08.907Z,21.21
2017-02-16T13:01:19.558Z,21.21
2017-02-16T13:02:28.875Z,21.12
2017-02-16T13:03:38.621Z,21.12
2017-02-16T13:04:48.422Z,21.13
2017-02-16T13:05:58.227Z,21.1
2017-02-16T13:07:07.557Z,21.04
2017-02-16T13:08:17.299Z,21.06
2017-02-16T13:09:27.502Z,21.03
2017-02-16T13:10:36.876Z,20.99
2017-02-16T13:11:47.080Z,20.95
2017-02-16T13:12:56.412Z,21.03
2017-02-16T13:14:06.623Z,20.88
2017-02-16T13:15:16.828Z,21.01
2017-02-16T13:16:26.201Z,20.89
2017-02-16T13:17:35.538Z,21.03
2017-02-16T13:18:44.875Z,20.95
2017-02-16T13:19:54.660Z,20.98
2017-02-16T13:21:05.293Z,21.04
2017-02-16T13:22:15.097Z,20.95
2017-02-16T13:23:25.728Z,20.94
2017-02-16T13:24:35.497Z,20.89
2017-02-16T13:25:44.818Z,21.03
2017-02-16T13:26:55.032Z,20.97
2017-02-16T13:28:04.857Z,20.91
2017-02-16T13:29:14.198Z,20.92
2017-02-16T13:30:23.985Z,20.89
2017-02-16T13:31:34.619Z,20.85
2017-02-16T13:32:44.397Z,20.84
2017-02-16T13:33:55.517Z,20.8
2017-02-16T13:35:05.291Z,20.76
2017-02-16T13:36:14.597Z,20.82
2017-02-16T13:37:24.349Z,20.79
2017-02-16T13:38:33.670Z,20.77
2017-02-16T13:39:43.920Z,20.73
2017-02-16T13:40:53.690Z,20.74
2017-02-16T13:42:03.457Z,20.67
2017-02-16T13:43:13.212Z,20.7
2017-02-16T13:44:22.515Z,20.77
2017-02-16T13:45:32.789Z,20.73
2017-02-16T13:46:42.559Z,20.66
2017-02-16T13:47:52.756Z,20.67
2017-02-16T13:49:02.960Z,20.61
2017-02-16T13:50:12.724Z,20.54
2017-02-16T13:51:22.975Z,20.57
2017-02-16T13:52:33.625Z,20.51
2017-02-16T13:53:42.953Z,20.5
2017-02-16T13:54:52.715Z,20.42
2017-02-16T13:56:02.936Z,20.42
2017-02-16T13:57:12.926Z,20.43
2017-02-16T13:58:23.151Z,20.41
2017-02-16T13:59:33.376Z,20.42
2017-02-16T14:00:43.137Z,20.43
2017-02-16T14:01:52.457Z,20.42
2017-02-16T14:03:02.707Z,20.48
2017-02-16T14:04:12.486Z,20.52
2017-02-16T14:05:23.137Z,20.51
2017-02-16T14:06:32.898Z,20.54
2017-02-16T14:07:42.243Z,20.64
2017-02-16T14:08:52.068Z,20.58
2017-02-16T14:10:02.280Z,20.57
2017-02-16T14:11:12.034Z,20.61
2017-02-16T14:12:21.793Z,20.58
2017-02-16T14:13:31.544Z,20.62
2017-02-16T14:14:41.382Z,20.62
2017-02-16T14:15:51.179Z,20.67
2017-02-16T14:17:00.532Z,20.59
2017-02-16T14:18:10.297Z,20.66
2017-02-16T14:19:20.490Z,20.62
2017-02-16T14:20:30.317Z,20.61
2017-02-16T14:21:40.083Z,20.59
2017-02-16T14:22:51.145Z,20.61
2017-02-16T14:24:00.482Z,20.69
2017-02-16T14:25:10.694Z,20.69
2017-02-16T14:26:20.957Z,20.64
2017-02-16T14:27:31.165Z,20.62
2017-02-16T14:28:40.473Z,20.55
2017-02-16T14:29:50.709Z,20.57
2017-02-16T14:31:00.477Z,20.57
2017-02-16T14:32:10.283Z,20.59
2017-02-16T14:33:20.052Z,20.57
2017-02-16T14:34:29.812Z,20.58
2017-02-16T14:35:40.887Z,20.57
2017-02-16T14:36:50.660Z,20.55
2017-02-16T14:38:00.035Z,20.52
2017-02-16T14:39:10.246Z,20.57
2017-02-16T14:40:20.011Z,20.41
2017-02-16T14:41:29.824Z,20.52
2017-02-16T14:42:39.582Z,20.42
2017-02-16T14:43:48.950Z,20.42
2017-02-16T14:44:58.719Z,20.55
2017-02-16T14:46:08.916Z,20.47
2017-02-16T14:47:19.136Z,20.42
2017-02-16T14:48:29.322Z,20.42
2017-02-16T14:49:38.682Z,20.39
2017-02-16T14:50:48.873Z,20.38
2017-02-16T14:51:59.106Z,20.39
2017-02-16T14:53:08.860Z,20.33
2017-02-16T14:54:18.209Z,20.35
2017-02-16T14:55:27.597Z,20.32
2017-02-16T14:56:37.378Z,20.33
2017-02-16T14:57:47.124Z,20.26
2017-02-16T14:58:56.890Z,20.31
2017-02-16T15:00:07.086Z,20.21
2017-02-16T15:01:17.348Z,20.26
2017-02-16T15:02:27.152Z,20.24
2017-02-16T15:03:36.909Z,20.1
2017-02-16T15:04:47.541Z,20.17
2017-02-16T15:05:58.178Z,20.17
2017-02-16T15:07:08.515Z,20.13
2017-02-16T15:08:18.273Z,20.1
2017-02-16T15:09:28.030Z,20.02